createdAt,value
2023-12-09T00:00:55.212Z,5.90
2023-12-09T00:03:22.322Z,5.90
2023-12-09T00:05:49.565Z,5.90
2023-12-09T00:08:16.829Z,5.90
2023-12-09T00:10:43.905Z,5.90
2023-12-09T00:13:11.923Z,5.90
2023-12-09T00:15:39.078Z,5.90
2023-12-09T00:18:06.360Z,5.90
2023-12-09T00:20:33.411Z,5.90
2023-12-09T01:04:49.041Z,5.90
2023-12-09T01:07:16.087Z,5.90
2023-12-09T01:09:43.252Z,5.90
2023-12-09T01:12:10.841Z,5.90
2023-12-09T01:14:37.857Z,5.90
2023-12-09T01:17:05.632Z,5.90
2023-12-09T01:19:32.674Z,5.90
2023-12-09T01:26:54.836Z,5.80
2023-12-09T01:29:21.856Z,5.90
2023-12-09T01:31:48.912Z,5.80
2023-12-09T01:34:15.990Z,5.80
2023-12-09T01:36:43.271Z,5.80
2023-12-09T01:39:10.460Z,5.80
2023-12-09T01:41:38.646Z,5.80
2023-12-09T01:44:06.268Z,5.90
2023-12-09T01:46:35.296Z,5.90
2023-12-09T01:49:02.529Z,5.90
2023-12-09T01:51:30.274Z,5.90
2023-12-09T01:53:57.443Z,5.90
2023-12-09T01:56:24.670Z,5.90
2023-12-09T01:58:52.709Z,6.00
2023-12-09T02:01:19.863Z,6.00
2023-12-09T02:03:47.026Z,5.90
2023-12-09T02:06:14.168Z,6.00
2023-12-09T02:08:41.222Z,5.90
2023-12-09T02:11:36.725Z,6.00
2023-12-09T02:14:08.650Z,6.00
2023-12-09T02:16:44.737Z,6.00
2023-12-09T02:19:15.126Z,6.00
2023-12-09T02:22:04.782Z,6.00
2023-12-09T03:18:55.514Z,6.00
2023-12-09T03:21:22.676Z,5.80
2023-12-09T03:23:49.685Z,5.80
2023-12-09T03:26:20.703Z,5.90
2023-12-09T03:28:47.931Z,5.90
2023-12-09T03:31:16.202Z,5.90
2023-12-09T03:33:43.910Z,5.80
2023-12-09T03:36:14.587Z,5.90
2023-12-09T03:38:42.698Z,5.90
2023-12-09T03:41:09.955Z,5.90
2023-12-09T03:43:37.167Z,5.80
2023-12-09T03:46:04.534Z,5.80
2023-12-09T03:48:32.857Z,5.80
2023-12-09T03:51:00.393Z,5.80
2023-12-09T03:53:28.813Z,5.80
2023-12-09T03:55:55.882Z,5.90
2023-12-09T03:58:23.869Z,5.80
2023-12-09T04:00:51.689Z,5.80
2023-12-09T04:03:20.456Z,5.80
2023-12-09T04:05:47.575Z,5.80
2023-12-09T04:08:14.654Z,5.80
2023-12-09T04:10:41.782Z,5.80
2023-12-09T05:34:38.142Z,5.80
2023-12-09T05:37:05.513Z,5.90
2023-12-09T05:39:32.590Z,5.90
2023-12-09T05:41:59.650Z,5.90
2023-12-09T05:44:26.694Z,5.90
2023-12-09T05:46:53.722Z,5.90
2023-12-09T05:49:20.918Z,5.80
2023-12-09T05:51:48.028Z,5.80
2023-12-09T05:54:15.088Z,5.80
2023-12-09T05:56:51.452Z,5.80
2023-12-09T05:59:18.512Z,5.80
2023-12-09T06:01:45.505Z,5.80
2023-12-09T06:04:12.747Z,5.80
2023-12-09T06:06:39.856Z,5.80
2023-12-09T06:09:07.834Z,5.80
2023-12-09T06:11:34.971Z,5.80
2023-12-09T06:14:02.165Z,5.80
2023-12-09T06:16:29.182Z,5.80
2023-12-09T06:18:56.358Z,5.80
2023-12-09T06:21:24.613Z,5.90
2023-12-09T06:23:52.422Z,5.90
2023-12-09T06:26:20.412Z,5.90
2023-12-09T06:28:47.488Z,5.80
2023-12-09T06:31:14.492Z,5.90
2023-12-09T06:33:41.799Z,5.90
2023-12-09T06:36:09.066Z,6.00
2023-12-09T06:38:41.014Z,6.00
2023-12-09T06:41:08.979Z,6.00
2023-12-09T06:43:36.082Z,6.00
2023-12-09T06:46:03.344Z,6.00
2023-12-09T06:48:30.521Z,6.00
2023-12-09T06:50:57.951Z,6.00
2023-12-09T06:53:24.983Z,6.00
2023-12-09T06:55:52.097Z,6.00
2023-12-09T06:58:19.119Z,6.00
2023-12-09T07:00:47.950Z,6.10
2023-12-09T07:03:15.301Z,6.00
2023-12-09T07:05:42.414Z,6.10
2023-12-09T07:08:12.536Z,6.00
2023-12-09T07:10:39.594Z,6.00
2023-12-09T07:13:06.627Z,6.00
2023-12-09T07:15:33.667Z,6.00
2023-12-09T07:18:01.215Z,6.00
2023-12-09T07:20:28.357Z,6.00
2023-12-09T07:22:55.373Z,6.00
2023-12-09T07:27:52.557Z,6.00
2023-12-09T07:30:19.740Z,6.10
2023-12-09T07:32:46.889Z,6.00
2023-12-09T07:35:14.486Z,6.00
2023-12-09T07:37:42.814Z,6.00
2023-12-09T07:40:13.149Z,6.00
2023-12-09T07:42:40.360Z,6.00
2023-12-09T07:45:08.278Z,6.10
2023-12-09T07:47:35.318Z,6.00
2023-12-09T07:50:02.359Z,6.10
2023-12-09T07:52:29.644Z,6.20
2023-12-09T07:54:56.995Z,6.10
2023-12-09T07:57:24.071Z,6.20
2023-12-09T07:59:51.109Z,6.20
2023-12-09T08:02:18.238Z,6.20
2023-12-09T08:04:45.296Z,6.40
2023-12-09T08:07:12.604Z,6.40
2023-12-09T08:09:39.678Z,6.50
2023-12-09T08:12:07.383Z,6.50
2023-12-09T08:14:34.995Z,6.50
2023-12-09T08:17:02.195Z,6.50
2023-12-09T08:19:29.298Z,6.50
2023-12-09T08:21:56.403Z,6.40
2023-12-09T08:24:24.085Z,6.50
2023-12-09T08:26:52.003Z,6.50
2023-12-09T08:29:19.056Z,6.40
2023-12-09T08:31:50.205Z,6.30
2023-12-09T08:34:18.048Z,6.30
2023-12-09T08:36:45.633Z,6.50
2023-12-09T08:39:12.749Z,6.50
2023-12-09T08:41:39.808Z,6.60
2023-12-09T08:44:07.822Z,6.60
2023-12-09T08:46:34.848Z,6.60
2023-12-09T08:49:02.005Z,6.70
2023-12-09T08:51:29.087Z,6.70
2023-12-09T08:53:56.794Z,6.80
2023-12-09T08:56:24.197Z,6.80
2023-12-09T08:58:51.303Z,6.90
2023-12-09T09:01:18.331Z,6.90
2023-12-09T09:03:45.757Z,7.00
2023-12-09T09:06:12.933Z,6.90
2023-12-09T09:08:39.988Z,7.00
2023-12-09T09:11:07.248Z,7.00
2023-12-09T09:13:34.276Z,7.00
2023-12-09T09:16:01.298Z,7.00
2023-12-09T09:18:28.954Z,6.90
2023-12-09T09:20:56.116Z,7.00
2023-12-09T09:23:23.223Z,7.00
2023-12-09T09:25:50.230Z,7.00
2023-12-09T09:28:17.269Z,7.00
2023-12-09T09:30:44.659Z,7.00
2023-12-09T09:33:12.001Z,7.10
2023-12-09T09:35:39.045Z,7.10
2023-12-09T09:38:06.218Z,7.10
2023-12-09T09:40:33.206Z,7.00
2023-12-09T09:43:06.140Z,7.00
2023-12-09T09:45:33.698Z,6.90
2023-12-09T09:48:12.087Z,6.90
2023-12-09T09:50:46.742Z,6.90
2023-12-09T09:53:18.887Z,7.00
2023-12-09T09:55:47.739Z,6.90
2023-12-09T09:58:17.395Z,6.90
2023-12-09T10:52:42.050Z,6.80
2023-12-09T10:55:09.332Z,6.70
2023-12-09T10:57:38.784Z,6.80
2023-12-09T11:00:12.659Z,6.90
2023-12-09T11:02:45.463Z,6.90
2023-12-09T11:05:14.152Z,7.10
2023-12-09T11:07:42.173Z,7.10
2023-12-09T11:10:10.631Z,7.10
2023-12-09T11:12:37.852Z,7.00
2023-12-09T11:15:20.716Z,7.00
2023-12-09T11:17:54.465Z,7.20
2023-12-09T11:20:22.696Z,7.20
2023-12-09T11:22:49.967Z,7.20
2023-12-09T11:25:26.628Z,7.20
2023-12-09T11:27:54.922Z,7.20
2023-12-09T11:30:56.969Z,7.20
2023-12-09T11:33:25.433Z,7.30
2023-12-09T11:35:56.617Z,7.30
2023-12-09T11:38:24.556Z,7.30
2023-12-09T11:40:52.609Z,7.30
2023-12-09T11:43:19.997Z,7.30
2023-12-09T11:45:48.077Z,7.20
2023-12-09T11:48:16.544Z,7.10
2023-12-09T11:50:43.988Z,7.00
2023-12-09T11:58:07.700Z,7.10
2023-12-09T12:00:35.557Z,7.20
2023-12-09T12:03:04.237Z,7.40
2023-12-09T12:05:32.868Z,7.30
2023-12-09T12:07:59.926Z,7.40
2023-12-09T12:10:26.992Z,7.40
2023-12-09T12:12:54.125Z,7.40
2023-12-09T12:15:21.408Z,7.40
2023-12-09T12:17:50.179Z,7.40
2023-12-09T12:20:17.433Z,7.30
2023-12-09T12:22:44.584Z,7.30
2023-12-09T12:25:12.192Z,7.40
2023-12-09T12:27:46.404Z,7.30
2023-12-09T12:30:17.189Z,7.20
2023-12-09T12:32:44.994Z,7.30
2023-12-09T12:35:12.444Z,7.20
2023-12-09T12:37:39.651Z,7.10
2023-12-09T12:40:07.696Z,7.20
2023-12-09T12:42:35.895Z,7.20
2023-12-09T12:45:07.825Z,7.20
2023-12-09T12:47:34.977Z,7.20
2023-12-09T12:50:02.065Z,7.20
2023-12-09T13:09:54.713Z,7.20
2023-12-09T13:14:49.403Z,7.00
2023-12-09T13:17:16.654Z,7.10
2023-12-09T13:19:43.844Z,7.10
2023-12-09T13:22:11.349Z,7.10
2023-12-09T13:24:38.505Z,7.20
2023-12-09T13:27:05.992Z,7.20
2023-12-09T13:32:03.537Z,7.20
2023-12-09T13:39:26.982Z,7.10
2023-12-09T13:54:13.553Z,7.10
2023-12-09T14:11:28.672Z,6.80
2023-12-09T14:13:56.217Z,6.90
2023-12-09T15:50:08.745Z,6.60
2023-12-09T16:02:28.297Z,6.80
2023-12-09T16:04:55.590Z,6.70
2023-12-09T16:07:22.791Z,6.60
2023-12-09T16:09:53.037Z,6.50
2023-12-09T16:22:18.055Z,6.50
2023-12-09T16:24:47.267Z,6.40
2023-12-09T16:27:15.132Z,6.40
2023-12-09T16:29:42.295Z,6.30
2023-12-09T16:32:11.814Z,6.40
2023-12-09T16:34:39.492Z,6.40
2023-12-09T16:39:34.578Z,6.40
2023-12-09T16:42:01.761Z,6.40
2023-12-09T16:59:16.811Z,6.80
2023-12-09T17:58:23.905Z,6.80
2023-12-09T18:10:42.138Z,7.10
2023-12-09T18:13:10.265Z,7.00
2023-12-09T18:15:37.544Z,7.00
2023-12-09T18:52:43.107Z,7.40
2023-12-09T19:02:34.949Z,7.50
2023-12-09T19:29:44.244Z,7.80
2023-12-09T20:16:35.106Z,8.30
2023-12-09T20:24:03.452Z,8.40
2023-12-09T20:26:31.775Z,8.40
2023-12-09T20:28:58.868Z,8.50
2023-12-09T20:58:32.829Z,10.00
2023-12-09T21:13:18.024Z,9.60
2023-12-09T21:42:55.475Z,9.20
2023-12-09T22:42:18.666Z,9.80
2023-12-09T22:57:09.705Z,10.00
2023-12-09T22:59:37.366Z,10.00
2023-12-09T23:02:06.474Z,9.60
2023-12-09T23:44:01.088Z,8.90
2023-12-09T23:51:24.914Z,8.90
